Humidity-temperature Sensor

Selected Measurement Type: Relative Humidity

 
Relative Humidity [%]     6 entries per hour
Showing data from 3/27/2015 (00:00:00 Z) to 3/24/2015 (00:01:00 Z)
Previous Next [ Day | 3-Days | 7-Days ]
First Last
Prev [ Day | 3-Days | 7-Days ] Next
First Last

Start Time:     :
End Time:     :     
Time (in GMT) :00 :50 :40 :30 :20 :10
Previous Next [ Day | 3-Days | 7-Days ]
First Last
Prev [ Day | 3-Days | 7-Days ] Next
First Last


123 => good data
MM => data is determined as missing
-- => data not received/configured
Back to Top Back to Top
3/27/2015 00:00 to 23:10 72.30 72.51 73.18 73.18 73.09 73.11
3/26/2015 23:00 to 22:10 73.09 72.37 72.93 73.09 73.61 73.36
3/26/2015 22:00 to 21:10 73.30 73.09 72.87 74.69 73.93 73.14
3/26/2015 21:00 to 20:10 74.28 74.42 73.99 74.34 73.99 73.93
3/26/2015 20:00 to 19:10 73.97 74.01 73.24 73.74 73.26 74.69
3/26/2015 19:00 to 18:10 74.03 73.09 73.03 73.63 74.07 74.34
3/26/2015 18:00 to 17:10 73.07 72.12 70.31 73.05 70.91 69.58
3/26/2015 17:00 to 16:10 69.35 70.87 70.20 71.20 72.20 70.52
3/26/2015 16:00 to 15:10 71.74 72.74 72.62 72.53 73.18 71.24
3/26/2015 15:00 to 14:10 73.22 73.49 73.24 74.22 73.80 75.44
3/26/2015 14:00 to 13:10 73.18 73.76 72.97 74.42 73.90 73.66
3/26/2015 13:00 to 12:10 74.76 73.99 74.26 74.45 75.65 75.98
3/26/2015 12:00 to 11:10 74.94 76.69 76.15 75.78 76.54 75.88
3/26/2015 11:00 to 10:10 -- -- -- -- -- --
3/26/2015 10:00 to 9:10 76.96 77.65 75.38 77.44 76.27 74.51
3/26/2015 09:00 to 8:10 74.80 75.09 77.13 78.40 78.91 76.63
3/26/2015 08:00 to 7:10 78.33 79.21 78.25 78.27 78.31 78.21
3/26/2015 07:00 to 6:10 78.00 78.83 77.79 77.61 76.61 77.21
3/26/2015 06:00 to 5:10 77.13 76.42 76.27 77.50 78.75 78.42
3/26/2015 05:00 to 4:10 77.23 78.98 78.56 78.69 77.67 77.00
3/26/2015 04:00 to 3:10 79.12 77.09 76.07 77.36 76.82 77.13
3/26/2015 03:00 to 2:10 77.83 78.42 77.77 77.69 77.58 76.03
3/26/2015 02:00 to 1:10 75.09 76.00 74.90 75.01 75.30 76.09
3/26/2015 01:00 to 0:10 78.54 76.86 77.00 77.36 75.80 75.94
3/26/2015 00:00 to 23:10 75.13 77.52 77.71 77.73 76.34 77.79
3/25/2015 23:00 to 22:10 78.10 77.38 77.36 78.21 78.71 77.75
3/25/2015 22:00 to 21:10 77.65 78.58 78.62 79.37 78.81 79.73
3/25/2015 21:00 to 20:10 79.23 79.25 79.06 77.48 77.11 78.00
3/25/2015 20:00 to 19:10 77.54 77.65 76.84 75.73 76.27 76.92
3/25/2015 19:00 to 18:10 76.75 79.31 77.67 77.79 79.12 77.02
3/25/2015 18:00 to 17:10 78.64 78.31 78.31 75.90 76.94 75.84
3/25/2015 17:00 to 16:10 77.46 77.36 76.96 77.88 79.79 77.06
3/25/2015 16:00 to 15:10 77.06 76.90 75.76 74.26 76.30 74.09
3/25/2015 15:00 to 14:10 77.77 77.25 77.23 78.42 77.56 79.04
3/25/2015 14:00 to 13:10 78.37 77.92 79.43 78.44 78.04 76.71
3/25/2015 13:00 to 12:10 79.10 79.37 79.77 79.50 79.06 78.44
3/25/2015 12:00 to 11:10 76.77 80.70 79.14 77.71 81.28 81.35
3/25/2015 11:00 to 10:10 79.89 81.51 82.53 82.51 83.20 81.72
3/25/2015 10:00 to 9:10 80.10 79.39 79.75 82.97 81.58 84.44
3/25/2015 09:00 to 8:10 83.20 82.51 81.16 83.01 82.93 83.09
3/25/2015 08:00 to 7:10 82.82 82.93 81.49 83.80 82.66 82.26
3/25/2015 07:00 to 6:10 81.01 80.91 82.76 83.05 82.74 82.28
3/25/2015 06:00 to 5:10 82.20 81.55 80.91 83.07 83.43 83.16
3/25/2015 05:00 to 4:10 83.09 82.26 83.09 84.32 84.09 85.15
3/25/2015 04:00 to 3:10 88.87 91.82 90.70 89.33 88.44 86.04
3/25/2015 03:00 to 2:10 83.97 85.75 85.65 84.53 83.86 85.36
3/25/2015 02:00 to 1:10 83.74 83.22 84.69 84.38 84.11 83.28
3/25/2015 01:00 to 0:10 84.76 82.24 81.74 82.14 82.28 83.01
3/25/2015 00:00 to 23:10 82.32 81.49 81.64 81.72 82.24 80.76
3/24/2015 23:00 to 22:10 80.31 81.26 81.89 82.05 82.74 81.39
3/24/2015 22:00 to 21:10 82.84 82.59 82.37 82.59 81.89 82.86
3/24/2015 21:00 to 20:10 81.35 81.37 80.62 83.09 82.45 80.99
3/24/2015 20:00 to 19:10 81.18 81.43 82.10 82.16 83.16 82.89
3/24/2015 19:00 to 18:10 82.22 81.89 81.70 81.16 81.06 81.10
3/24/2015 18:00 to 17:10 81.14 81.28 81.28 81.08 81.58 81.10
3/24/2015 17:00 to 16:10 81.70 79.79 79.68 78.06 78.52 78.75
3/24/2015 16:00 to 15:10 80.41 80.14 78.46 78.40 79.04 79.06
3/24/2015 15:00 to 14:10 79.06 80.56 80.68 80.99 82.53 80.83
3/24/2015 14:00 to 13:10 84.09 81.37 82.57 83.03 82.45 82.66
3/24/2015 13:00 to 12:10 81.31 83.16 82.32 83.72 83.03 80.39
3/24/2015 12:00 to 11:10 81.85 81.62 81.62 82.28 82.41 83.40
3/24/2015 11:00 to 10:10 81.62 82.74 83.09 82.80 81.24 83.13
3/24/2015 10:00 to 9:10 82.05 81.89 82.41 81.47 81.20 81.26
3/24/2015 09:00 to 8:10 81.89 81.91 81.93 81.33 82.14 80.02
3/24/2015 08:00 to 7:10 81.58 81.18 82.34 82.32 81.28 80.93
3/24/2015 07:00 to 6:10 81.26 80.72 80.79 81.53 80.62 80.60
3/24/2015 06:00 to 5:10 80.97 81.41 81.68 81.04 80.64 80.06
3/24/2015 05:00 to 4:10 82.41 80.18 81.24 80.37 81.80 81.16
3/24/2015 04:00 to 3:10 80.58 81.66 81.39 81.53 82.66 81.01
3/24/2015 03:00 to 2:10 80.64 81.68 80.45 80.49 81.12 81.20
3/24/2015 02:00 to 1:10 82.10 81.39 80.95 79.02 79.39 79.95
3/24/2015 01:00 to 0:10 79.60 79.75 80.72 80.37 80.91 81.01